Terminal Aerodrome Forecast
Issued by NWS

Home | Current Version | Previous Version | Graphics & Text | Print | Product List | Glossary On
Versions: 1 2 3 4 5 6 7 8 9 10 11 12 13 14 15 16 17 18 19 20
000
FTUS43 KTOP 241940 AAA
TAFMHK
TAF AMD
KMHK 241940Z 2420/2518 35007G20KT P6SM VCSH SCT025 OVC050
     FM250600 34005G18KT 5SM -RA OVC013
     FM251200 33005KT 5SM -RA OVC006=

USA.gov is the U.S. government's official web portal to all federal, state and local government web resources and services.